createdAt,value
2023-05-14T00:01:37.737Z,14.00
2023-05-14T00:06:39.920Z,12.60
2023-05-14T00:11:41.700Z,10.90
2023-05-14T00:16:43.480Z,11.30
2023-05-14T00:21:47.102Z,13.00
2023-05-14T00:26:48.822Z,15.00
2023-05-14T00:31:50.789Z,23.20
2023-05-14T00:36:53.240Z,21.00
2023-05-14T00:41:55.424Z,24.30
2023-05-14T00:46:58.740Z,24.20
2023-05-14T00:52:01.162Z,16.40
2023-05-14T00:57:05.752Z,10.50
2023-05-14T01:02:07.659Z,10.00
2023-05-14T01:07:46.998Z,10.10
2023-05-14T01:13:13.760Z,12.40
2023-05-14T01:18:19.023Z,10.70
2023-05-14T01:23:20.790Z,11.10
2023-05-14T01:28:32.509Z,10.80
2023-05-14T01:33:36.636Z,11.10
2023-05-14T01:38:39.408Z,12.70
2023-05-14T01:43:41.917Z,13.80
2023-05-14T01:48:43.696Z,13.30
2023-05-14T01:53:45.887Z,12.30
2023-05-14T01:58:47.659Z,10.30
2023-05-14T02:03:49.464Z,11.70
2023-05-14T02:08:51.408Z,11.20
2023-05-14T02:13:53.083Z,10.30
2023-05-14T02:18:54.876Z,12.30
2023-05-14T02:23:57.049Z,12.60
2023-05-14T02:28:58.902Z,9.80
2023-05-14T02:34:02.341Z,9.80
2023-05-14T02:39:05.028Z,9.50
2023-05-14T02:44:06.714Z,9.50
2023-05-14T02:49:08.791Z,11.80
2023-05-14T02:54:10.667Z,13.10
2023-05-14T02:59:12.545Z,15.20
2023-05-14T03:04:15.341Z,13.10
2023-05-14T03:09:17.123Z,11.10
2023-05-14T03:14:19.015Z,10.50
2023-05-14T03:19:20.879Z,16.00
2023-05-14T03:24:22.652Z,11.60
2023-05-14T03:29:24.450Z,19.90
2023-05-14T03:34:26.305Z,12.00
2023-05-14T03:39:28.078Z,11.30
2023-05-14T03:44:29.851Z,9.30
2023-05-14T03:49:31.800Z,9.40
2023-05-14T03:54:33.711Z,10.80
2023-05-14T03:59:35.488Z,29.30
2023-05-14T04:04:37.425Z,12.20
2023-05-14T04:09:39.342Z,9.20
2023-05-14T04:14:41.335Z,11.10
2023-05-14T04:19:43.096Z,12.30
2023-05-14T04:24:44.788Z,12.90
2023-05-14T04:29:50.312Z,14.20
2023-05-14T04:34:52.106Z,12.70
2023-05-14T04:39:53.979Z,11.70
2023-05-14T04:44:55.862Z,10.60
2023-05-14T04:49:57.960Z,10.30
2023-05-14T04:54:59.712Z,11.00
2023-05-14T05:00:05.176Z,18.00
2023-05-14T05:05:08.508Z,11.90
2023-05-14T05:10:10.599Z,11.00
2023-05-14T05:15:16.076Z,10.80
2023-05-14T05:20:18.771Z,10.60
2023-05-14T05:25:23.475Z,9.20
2023-05-14T05:30:25.708Z,9.60
2023-05-14T05:35:27.854Z,11.20
2023-05-14T05:40:30.131Z,10.80
2023-05-14T05:45:32.050Z,10.50
2023-05-14T05:50:33.890Z,11.40
2023-05-14T05:55:36.174Z,9.90
2023-05-14T06:00:37.963Z,8.90
2023-05-14T06:05:40.541Z,9.10
2023-05-14T06:10:42.532Z,7.90
2023-05-14T06:15:44.412Z,7.90
2023-05-14T06:20:46.386Z,7.50
2023-05-14T06:25:50.864Z,6.50
2023-05-14T06:30:55.774Z,6.60
2023-05-14T06:36:05.180Z,6.90
2023-05-14T06:41:07.101Z,6.70
2023-05-14T06:46:08.975Z,6.40
2023-05-14T06:51:12.806Z,6.00
2023-05-14T06:56:14.726Z,5.50
2023-05-14T07:01:17.130Z,5.50
2023-05-14T07:06:19.252Z,5.40
2023-05-14T07:11:21.747Z,6.20
2023-05-14T07:16:23.580Z,4.80
2023-05-14T07:21:26.525Z,4.60
2023-05-14T07:26:28.404Z,4.20
2023-05-14T07:31:30.521Z,4.30
2023-05-14T07:36:33.283Z,3.80
2023-05-14T07:41:35.174Z,4.20
2023-05-14T07:46:37.041Z,4.00
2023-05-14T07:51:38.924Z,3.10
2023-05-14T07:56:40.896Z,3.40
2023-05-14T08:01:42.788Z,2.70
2023-05-14T08:06:44.966Z,2.90
2023-05-14T08:11:46.948Z,2.80
2023-05-14T08:16:49.158Z,3.00
2023-05-14T08:21:51.216Z,3.10
2023-05-14T08:26:53.103Z,3.10
2023-05-14T08:31:54.981Z,2.70
2023-05-14T08:36:56.949Z,2.40
2023-05-14T08:42:01.598Z,2.80
2023-05-14T08:47:04.283Z,2.70
2023-05-14T08:52:08.100Z,2.30
2023-05-14T08:57:10.910Z,2.60
2023-05-14T09:02:16.361Z,2.50
2023-05-14T09:07:18.458Z,2.60
2023-05-14T09:12:21.656Z,2.40
2023-05-14T09:17:27.385Z,2.80
2023-05-14T09:22:33.093Z,2.30
2023-05-14T09:27:36.094Z,2.40
2023-05-14T09:32:41.990Z,2.50
2023-05-14T09:37:47.244Z,2.10
2023-05-14T09:42:50.020Z,2.60
2023-05-14T09:47:52.978Z,2.20
2023-05-14T09:52:55.719Z,2.60
2023-05-14T09:57:57.592Z,2.40
2023-05-14T10:03:06.451Z,2.10
2023-05-14T10:08:37.312Z,2.10
2023-05-14T10:13:49.775Z,2.30
2023-05-14T10:18:57.849Z,2.10
2023-05-14T10:24:00.436Z,2.30
2023-05-14T10:29:02.832Z,2.20
2023-05-14T10:34:43.721Z,2.00
2023-05-14T10:40:18.867Z,1.90
2023-05-14T10:45:22.712Z,2.10
2023-05-14T10:50:26.411Z,1.90
2023-05-14T10:55:29.118Z,1.90
2023-05-14T11:00:34.987Z,2.20
2023-05-14T11:05:38.807Z,2.00
2023-05-14T11:10:42.844Z,2.00
2023-05-14T11:15:47.691Z,2.30
2023-05-14T11:20:49.473Z,1.90
2023-05-14T11:25:53.756Z,2.10
2023-05-14T11:30:55.989Z,2.10
2023-05-14T11:35:57.860Z,2.20
2023-05-14T11:40:59.965Z,1.90
2023-05-14T11:46:02.071Z,2.00
2023-05-14T11:51:04.520Z,2.00
2023-05-14T11:56:08.284Z,2.50
2023-05-14T12:01:13.907Z,1.70
2023-05-14T12:06:15.888Z,2.40
2023-05-14T12:11:20.941Z,1.90
2023-05-14T12:16:22.900Z,1.90
2023-05-14T12:21:27.460Z,1.70
2023-05-14T12:26:33.653Z,1.90
2023-05-14T12:31:36.340Z,2.80
2023-05-14T12:36:38.533Z,2.00
2023-05-14T12:41:40.392Z,1.90
2023-05-14T12:46:42.410Z,1.90
2023-05-14T12:51:45.169Z,3.20
2023-05-14T12:56:47.050Z,1.80
2023-05-14T13:01:48.960Z,1.80
2023-05-14T13:06:50.856Z,1.80
2023-05-14T13:11:53.299Z,3.50
2023-05-14T13:16:55.532Z,1.80
2023-05-14T13:21:57.462Z,1.70
2023-05-14T13:26:59.271Z,1.80
2023-05-14T13:32:01.522Z,1.90
2023-05-14T13:37:03.843Z,3.10
2023-05-14T13:42:06.310Z,1.90
2023-05-14T13:47:08.282Z,1.60
2023-05-14T13:52:10.058Z,3.60
2023-05-14T13:57:11.757Z,1.70
2023-05-14T14:02:14.841Z,1.70
2023-05-14T14:07:16.619Z,2.00
2023-05-14T14:12:18.521Z,1.50
2023-05-14T14:17:20.578Z,2.00
2023-05-14T14:22:23.171Z,2.20
2023-05-14T14:27:27.316Z,1.50
2023-05-14T14:32:29.175Z,1.90
2023-05-14T14:37:31.001Z,1.90
2023-05-14T14:42:34.792Z,2.00
2023-05-14T14:47:36.795Z,2.50
2023-05-14T14:52:40.502Z,1.90
2023-05-14T14:57:42.259Z,2.20
2023-05-14T15:02:44.111Z,1.30
2023-05-14T15:07:46.329Z,1.40
2023-05-14T15:12:48.406Z,1.80
2023-05-14T15:17:50.611Z,1.80
2023-05-14T15:22:55.242Z,1.70
2023-05-14T15:27:57.205Z,1.70
2023-05-14T15:32:59.140Z,1.80
2023-05-14T15:38:01.065Z,3.20
2023-05-14T15:43:03.414Z,1.80
2023-05-14T15:48:05.905Z,1.80
2023-05-14T15:53:08.441Z,1.60
2023-05-14T15:58:12.356Z,1.90
2023-05-14T16:03:14.337Z,1.80
2023-05-14T16:08:16.334Z,2.10
2023-05-14T16:13:19.123Z,2.30
2023-05-14T16:18:21.708Z,1.80
2023-05-14T16:23:23.691Z,2.30
2023-05-14T16:28:25.668Z,2.10
2023-05-14T16:33:27.545Z,2.30
2023-05-14T16:38:29.433Z,2.00
2023-05-14T16:43:31.212Z,2.10
2023-05-14T16:48:33.120Z,2.20
2023-05-14T16:53:35.765Z,2.20
2023-05-14T16:58:37.754Z,2.00
2023-05-14T17:03:40.338Z,1.90
2023-05-14T17:08:42.233Z,1.70
2023-05-14T17:13:44.196Z,2.90
2023-05-14T17:18:48.765Z,2.90
2023-05-14T17:23:50.717Z,2.60
2023-05-14T17:28:52.600Z,2.30
2023-05-14T17:33:55.197Z,2.00
2023-05-14T17:38:57.691Z,1.90
2023-05-14T17:43:59.784Z,2.00
2023-05-14T17:49:01.969Z,1.70
2023-05-14T17:54:04.155Z,1.80
2023-05-14T17:59:06.735Z,6.00
2023-05-14T18:04:08.666Z,3.40
2023-05-14T18:09:10.933Z,10.80
2023-05-14T18:14:12.975Z,7.40
2023-05-14T18:19:15.317Z,7.10
2023-05-14T18:24:17.673Z,7.20
2023-05-14T18:29:19.566Z,5.90
2023-05-14T18:34:21.474Z,5.80
2023-05-14T18:39:23.426Z,5.10
2023-05-14T18:44:25.311Z,3.30
2023-05-14T18:49:27.368Z,3.80
2023-05-14T18:54:29.356Z,7.10
2023-05-14T18:59:31.530Z,5.70
2023-05-14T19:04:44.271Z,7.30
2023-05-14T19:09:52.790Z,7.70
2023-05-14T19:14:54.862Z,6.20
2023-05-14T19:19:56.966Z,3.00
2023-05-14T19:24:58.932Z,3.00
2023-05-14T19:30:01.033Z,3.50
2023-05-14T19:35:05.180Z,3.40
2023-05-14T19:40:08.582Z,3.00
2023-05-14T19:45:11.147Z,3.00
2023-05-14T19:50:13.133Z,3.80
2023-05-14T19:55:15.111Z,3.00
2023-05-14T20:00:17.611Z,4.30
2023-05-14T20:05:19.695Z,5.00
2023-05-14T20:10:21.649Z,7.60
2023-05-14T20:15:23.645Z,6.10
2023-05-14T20:20:27.097Z,4.90
2023-05-14T20:25:32.240Z,4.00
2023-05-14T20:30:34.631Z,3.50
2023-05-14T20:35:36.730Z,3.20
2023-05-14T20:40:38.874Z,3.80
2023-05-14T20:45:41.266Z,5.10
2023-05-14T20:50:43.920Z,4.30
2023-05-14T20:55:45.742Z,3.00
2023-05-14T21:00:47.719Z,3.40
2023-05-14T21:05:49.559Z,3.80
2023-05-14T21:10:51.272Z,3.90
2023-05-14T21:15:53.194Z,3.40
2023-05-14T21:20:55.222Z,3.40
2023-05-14T21:25:57.528Z,3.70
2023-05-14T21:30:59.356Z,3.90
2023-05-14T21:36:01.513Z,4.40
2023-05-14T21:41:03.361Z,4.00
2023-05-14T21:46:05.145Z,4.00
2023-05-14T21:51:07.510Z,4.30
2023-05-14T21:56:09.599Z,3.90
2023-05-14T22:01:11.501Z,4.40
2023-05-14T22:06:13.657Z,4.50
2023-05-14T22:11:15.544Z,4.20
2023-05-14T22:16:17.232Z,4.60
2023-05-14T22:21:19.187Z,4.40
2023-05-14T22:26:23.656Z,4.20
2023-05-14T22:31:25.432Z,4.50
2023-05-14T22:36:27.479Z,5.20
2023-05-14T22:41:29.475Z,4.90
2023-05-14T22:46:31.255Z,4.50
2023-05-14T22:51:33.227Z,4.90
2023-05-14T22:56:35.508Z,4.20
2023-05-14T23:01:37.448Z,4.60
2023-05-14T23:06:39.781Z,4.70
2023-05-14T23:11:41.559Z,5.20
2023-05-14T23:16:43.948Z,5.40
2023-05-14T23:21:46.029Z,4.80
2023-05-14T23:26:47.917Z,5.00
2023-05-14T23:31:50.451Z,4.80
2023-05-14T23:36:52.882Z,5.70
2023-05-14T23:41:54.755Z,5.30
2023-05-14T23:46:56.528Z,4.70
2023-05-14T23:51:58.304Z,5.00
2023-05-14T23:57:02.702Z,5.20
